Bridger Ridge

You may also find Bridger Weather data directly on their website HERE.

Elevation
8500ft
Jump to table bottom
Date Time Temperature
deg F
RH, % Wind Speed Wind Gust Wind Direction
01/16/19 23:00 16.3 93 10 19 SW - 209
01/16/19 22:00 16.2 93 12 19 SW - 223
01/16/19 21:00 16.8 94 11 19 SW - 219
01/16/19 20:00 17.4 94 9 14 S - 192
01/16/19 19:00 17.5 94 9 15 S - 190
01/16/19 18:00 17.6 94 9 15 S - 195
01/16/19 17:00 18.8 94 10 15 S - 198
01/16/19 16:00 19.4 94 10 16 S - 192
01/16/19 15:00 20.3 94 9 16 SW - 215
01/16/19 14:00 21.4 95 9 15 SW - 205
01/16/19 13:00 20.7 95 8 14 SW - 215
01/16/19 12:00 20.0 94 8 14 SW - 206
01/16/19 11:00 18.7 94 10 16 SW - 205
01/16/19 10:00 17.4 93 10 16 S - 201
01/16/19 09:00 17.2 93 9 16 SW - 208
01/16/19 08:00 16.3 93 10 16 SW - 218
01/16/19 07:00 16.5 93 9 16 SW - 223
01/16/19 06:00 16.3 93 13 21 S - 191
01/16/19 05:00 16.2 93 16 22 S - 181
01/16/19 04:00 16.5 93 10 20 SW - 216
01/16/19 03:00 16.3 93 10 19 SW - 219
01/16/19 02:00 16.2 92 11 21 SW - 216
01/16/19 01:00 16.0 92 10 21 SW - 213
01/16/19 00:00 16.6 93 16 26 S - 198
01/15/19 23:00 17.4 93 12 21 SW - 205
01/15/19 22:00 17.5 93 9 16 S - 197
01/15/19 21:00 17.2 92 11 18 S - 183
01/15/19 20:00 17.2 92 13 19 S - 185
01/15/19 19:00 17.1 92 11 21 S - 190
01/15/19 18:00 16.7 91 14 21 S - 166
01/15/19 17:00 16.5 90 16 24 SE - 156
01/15/19 16:00 16.9 81 13 25 SE - 133
01/15/19 15:00 17.5 56 13 24 SE - 121
01/15/19 14:00 20.4 41 13 21 SE - 135
01/15/19 13:00 19.8 40 12 25 SE - 114
01/15/19 12:00 19.8 36 13 20 SE - 128
01/15/19 11:00 18.9 37 15 22 SE - 124
01/15/19 10:00 20.7 36 15 23 SE - 117
01/15/19 09:00 19.3 38 15 22 SE - 124
01/15/19 08:00 21.7 33 13 18 SE - 138
01/15/19 07:00 21.4 30 15 16 S - 159
01/15/19 06:00 20.9 26 13 16 S - 177
01/15/19 05:00 21.4 28 15 21 S - 178
01/15/19 04:00 21.7 29 16 21 S - 167
01/15/19 03:00 21.4 31 12 18 S - 171
01/15/19 02:00 27.4 30 11 16 S - 192
01/15/19 01:00 22.5 35 15 18 S - 166
01/15/19 00:00 23.2 36 14 18 S - 168
01/14/19 23:00 25.0 35 13 16 S - 174
01/14/19 22:00 27.3 30 11 13 S - 192